This is the latest recevied weather packets stored in our database for station/object KG5MMT-12. If no packets are shown the sender has not sent any weather packets the latest 10 day(s).
| Time | Temp. | Humidity | Pressure | Rain* | Wind** | Luminosity | Snow |
|---|---|---|---|---|---|---|---|
| 1777878833 | 12.22° C | 55% | 0 hPa | 0 mm | - | - | - |
| 1777878533 | 11.67° C | 56% | 0 hPa | 0 mm | - | - | - |
| 1777878233 | 11.67° C | 57% | 0 hPa | 0 mm | - | - | - |
| 1777877933 | 11.67° C | 58% | 0 hPa | 0 mm | - | - | - |
| 1777877633 | 11.67° C | 58% | 0 hPa | 0 mm | - | - | - |
| 1777877333 | 11.11° C | 60% | 0 hPa | 0 mm | - | - | - |
| 1777877033 | 11.11° C | 61% | 0 hPa | 0 mm | - | - | - |
| 1777876733 | 11.11° C | 60% | 0 hPa | 0 mm | - | - | - |
| 1777876433 | 11.11° C | 59% | 0 hPa | 0 mm | - | - | - |
| 1777876133 | 11.11° C | 59% | 0 hPa | 0 mm | - | - | - |
| 1777875833 | 11.67° C | 57% | 0 hPa | 0 mm | - | - | - |
| 1777875533 | 11.11° C | 59% | 0 hPa | 0 mm | - | - | - |
| 1777875233 | 10.56° C | 59% | 0 hPa | 0 mm | - | - | - |
| 1777874933 | 10° C | 61% | 0 hPa | 0 mm | - | - | - |
| 1777874633 | 9.44° C | 64% | 0 hPa | 0 mm | - | - | - |
| 1777874401 | 19.44° C | 21% | 0 hPa | 0 mm | - | - | - |
| 1777874333 | 8.89° C | 64% | 0 hPa | 0 mm | - | - | - |
| 1777874033 | 9.44° C | 62% | 0 hPa | 0 mm | - | - | - |
| 1777873733 | 9.44° C | 63% | 0 hPa | 0 mm | - | - | - |
| 1777873433 | 9.44° C | 60% | 0 hPa | 0 mm | - | - | - |
| 1777873133 | 10° C | 60% | 0 hPa | 0 mm | - | - | - |
| 1777872833 | 10° C | 60% | 0 hPa | 0 mm | - | - | - |
| 1777872533 | 10.56° C | 57% | 0 hPa | 0 mm | - | - | - |
| 1777872233 | 10.56° C | 56% | 0 hPa | 0 mm | - | - | - |
| 1777871933 | 10° C | 55% | 0 hPa | 0 mm | - | - | - |
* Rain latest hour (hover to see other rain measurements)
** Current wind speed in m/s (hover to see current wind gust speed)